createdAt,value
2019-03-29T00:02:58.371Z,73.22
2019-03-29T00:08:09.551Z,73.30
2019-03-29T00:13:17.326Z,73.58
2019-03-29T00:18:25.434Z,73.83
2019-03-29T00:23:33.222Z,73.53
2019-03-29T00:28:40.980Z,73.02
2019-03-29T00:33:49.405Z,72.99
2019-03-29T00:38:59.079Z,73.00
2019-03-29T00:44:06.870Z,73.64
2019-03-29T00:49:14.972Z,73.94
2019-03-29T00:54:23.790Z,73.53
2019-03-29T00:59:31.544Z,73.71
2019-03-29T01:04:40.755Z,73.17
2019-03-29T01:09:48.844Z,74.02
2019-03-29T01:14:57.443Z,74.16
2019-03-29T01:20:08.222Z,74.22
2019-03-29T01:25:15.838Z,73.45
2019-03-29T01:30:23.533Z,73.41
2019-03-29T01:35:32.060Z,73.80
2019-03-29T01:40:40.149Z,73.78
2019-03-29T01:45:48.319Z,74.08
2019-03-29T01:50:58.680Z,73.75
2019-03-29T01:56:09.489Z,73.73
2019-03-29T02:01:17.224Z,73.93
2019-03-29T02:06:25.790Z,73.35
2019-03-29T02:11:33.790Z,73.93
2019-03-29T02:16:41.531Z,74.22
2019-03-29T02:21:49.455Z,74.04
2019-03-29T02:26:57.468Z,74.12
2019-03-29T02:32:07.086Z,73.65
2019-03-29T02:37:15.259Z,73.84
2019-03-29T02:42:23.341Z,73.89
2019-03-29T02:47:31.009Z,73.93
2019-03-29T02:52:39.225Z,73.58
2019-03-29T02:57:46.925Z,73.17
2019-03-29T03:02:56.229Z,73.47
2019-03-29T03:08:07.802Z,73.55
2019-03-29T03:13:16.057Z,73.17
2019-03-29T03:18:23.759Z,73.54
2019-03-29T03:23:32.653Z,73.13
2019-03-29T03:28:40.618Z,73.73
2019-03-29T03:33:48.389Z,73.03
2019-03-29T03:38:56.525Z,72.51
2019-03-29T03:44:07.414Z,73.12
2019-03-29T03:49:15.185Z,73.71
2019-03-29T03:54:23.552Z,73.18
2019-03-29T03:59:32.686Z,72.97
2019-03-29T04:04:40.837Z,73.32
2019-03-29T04:09:50.748Z,73.44
2019-03-29T04:14:59.767Z,73.58
2019-03-29T04:20:10.516Z,73.74
2019-03-29T04:25:18.500Z,73.89
2019-03-29T04:30:26.210Z,73.76
2019-03-29T04:35:33.999Z,73.72
2019-03-29T04:40:41.919Z,73.50
2019-03-29T04:45:50.053Z,73.66
2019-03-29T04:50:57.884Z,73.71
2019-03-29T04:56:08.785Z,76.46
2019-03-29T05:01:17.423Z,75.04
2019-03-29T05:06:25.472Z,73.97
2019-03-29T05:11:33.967Z,74.98
2019-03-29T05:16:42.432Z,74.45
2019-03-29T05:21:50.319Z,74.72
2019-03-29T05:26:58.653Z,74.64
2019-03-29T05:32:10.519Z,73.91
2019-03-29T05:37:18.351Z,73.68
2019-03-29T05:42:26.477Z,73.54
2019-03-29T05:47:34.707Z,73.39
2019-03-29T05:52:42.417Z,73.33
2019-03-29T05:57:50.963Z,73.59
2019-03-29T06:02:58.615Z,73.33
2019-03-29T06:08:09.679Z,73.33
2019-03-29T06:13:18.209Z,74.53
2019-03-29T06:18:26.232Z,74.13
2019-03-29T06:23:34.837Z,75.01
2019-03-29T06:28:43.482Z,75.36
2019-03-29T06:33:51.691Z,75.79
2019-03-29T06:39:01.186Z,74.06
2019-03-29T06:44:11.245Z,72.75
2019-03-29T06:49:19.338Z,72.77
2019-03-29T06:54:27.047Z,72.87
2019-03-29T06:59:35.190Z,71.80
2019-03-29T07:04:42.919Z,73.36
2019-03-29T07:09:51.235Z,71.27
2019-03-29T07:15:00.941Z,70.14
2019-03-29T07:20:12.158Z,69.03
2019-03-29T07:25:19.958Z,69.57
2019-03-29T07:30:28.127Z,68.89
2019-03-29T07:47:07.062Z,67.79
2019-03-29T07:52:15.324Z,66.88
2019-03-29T07:57:24.092Z,66.87
2019-03-29T08:02:35.134Z,67.19
2019-03-29T08:07:43.876Z,67.11
2019-03-29T08:12:51.718Z,65.64
2019-03-29T08:18:01.697Z,64.44
2019-03-29T08:23:14.338Z,63.05
2019-03-29T08:28:22.103Z,62.27
2019-03-29T08:33:30.145Z,61.14
2019-03-29T08:38:37.871Z,61.18
2019-03-29T08:43:46.601Z,60.95
2019-03-29T08:48:54.935Z,58.02
2019-03-29T08:54:07.526Z,60.83
2019-03-29T08:59:17.613Z,58.96
2019-03-29T09:04:26.433Z,59.81
2019-03-29T09:09:37.613Z,59.10
2019-03-29T09:14:45.422Z,57.69
2019-03-29T09:19:54.081Z,57.93
2019-03-29T09:25:02.594Z,59.06
2019-03-29T09:30:10.766Z,60.04
2019-03-29T09:35:18.957Z,59.91
2019-03-29T09:40:26.787Z,59.23
2019-03-29T09:45:34.884Z,57.53
2019-03-29T09:50:46.710Z,53.17
2019-03-29T09:55:53.617Z,54.50
2019-03-29T10:01:02.744Z,54.20
2019-03-29T10:06:10.750Z,51.42
2019-03-29T10:11:21.943Z,56.50
2019-03-29T10:16:27.944Z,56.98
2019-03-29T10:21:37.310Z,56.10
2019-03-29T10:26:45.915Z,56.81
2019-03-29T10:31:53.647Z,57.92
2019-03-29T11:10:39.013Z,53.72
2019-03-29T11:15:46.887Z,53.24
2019-03-29T11:20:55.380Z,52.37
2019-03-29T11:26:04.924Z,51.38
2019-03-29T11:31:12.400Z,50.62
